»·PEaware :: N256Z KTVL-KFOT

N256Z :: KTVL-KFOT

FLIGHT INFORMATION

Flight Status: Arrived
Operator: Privately registered:
United States
More flights under this callsign
Pilot: Gregory A. (9731)
Aircraft: PIPER PA-46-310/350P MALIBU MIRAGE
(PA46)
More flights by this aircraft type
Origin: KTVL Lake Tahoe
United States
Destination: KFOT Rohnerville
United States
More flights between these airports :: More routes between these airports
Route: + RICHY6 SWR RANGO CIC RBL TOYEE
File this flight plan on PilotEdge
Remarks:
Altitude:
(Current/Filed)
260ft
Speed:
(Current/Filed)
260kts
Departed: 27-May-18 06:38 PM
Arrived: 27-May-18 07:42 PM
Distance/Time
Traveled:
216nm/1:04
Distance/Time
To Go:
Arrived

Flight Plot

Page will automatically refresh every two minutes.

Flight plan parsing failed; only flown route is shown


Map Options




Map Legend


Flown Route
Filed Route
Departure Airport
Arrival Airport
Navaid (VOR, NDB)
Fix

Horizontal Profiles

Position Reports

Time Latitude Longitude Heading Altitude Ground
Speed
27-May-18 18:22 38.893492 -119.997687 281 6263ft 0kts
27-May-18 18:23 38.893492 -119.997687 281 6263ft 0kts
27-May-18 18:24 38.893492 -119.997687 281 6263ft 0kts
27-May-18 18:25 38.893492 -119.997687 281 6263ft 0kts
27-May-18 18:26 38.893492 -119.997687 281 6263ft 0kts
27-May-18 18:27 38.893492 -119.997687 281 6263ft 0kts
27-May-18 18:28 38.893492 -119.997687 281 6263ft 0kts
27-May-18 18:29 38.893492 -119.997687 281 6263ft 0kts
27-May-18 18:30 38.893492 -119.997687 281 6263ft 0kts
27-May-18 18:31 38.893492 -119.997687 281 6263ft 0kts
27-May-18 18:32 38.893492 -119.997687 281 6263ft 0kts
27-May-18 18:33 38.893201 -119.997869 164 6263ft 7kts
27-May-18 18:34 38.891627 -119.997061 193 6263ft 15kts
27-May-18 18:35 38.885952 -119.998729 192 6263ft 19kts
27-May-18 18:36 38.882770 -119.999464 133 6263ft 0kts
27-May-18 18:37 38.884022 -119.998227 13 6263ft 33kts
27-May-18 18:38 38.913974 -119.999093 344 6779ft 174kts
27-May-18 18:39 38.962550 -120.016531 343 8801ft 174kts
27-May-18 18:40 39.009604 -120.032251 343 11265ft 178kts
27-May-18 18:41 39.047105 -120.074360 302 13315ft 189kts
27-May-18 18:42 39.073058 -120.120547 301 14982ft 191kts
27-May-18 18:43 39.107758 -120.172797 309 16986ft 198kts
27-May-18 18:44 39.147852 -120.222688 311 18993ft 201kts
27-May-18 18:45 39.188280 -120.287367 281 21347ft 193kts
27-May-18 18:46 39.190353 -120.357053 272 23359ft 197kts
27-May-18 18:47 39.195266 -120.428060 274 25365ft 199kts
27-May-18 18:48 39.201833 -120.502735 274 26238ft 230kts
27-May-18 18:49 39.208188 -120.572337 274 26229ft 235kts
27-May-18 18:50 39.215844 -120.656467 274 26229ft 235kts
27-May-18 18:51 39.223335 -120.739538 274 26227ft 232kts
27-May-18 18:52 39.230734 -120.822295 274 26220ft 231kts
27-May-18 18:53 39.238044 -120.904660 274 26208ft 231kts
27-May-18 18:54 39.245331 -120.987309 274 26193ft 234kts
27-May-18 18:55 39.252708 -121.071097 274 26180ft 234kts
27-May-18 18:56 39.284854 -121.144292 305 26156ft 241kts
27-May-18 18:57 39.329894 -121.208887 307 26135ft 242kts
27-May-18 18:58 39.375994 -121.272781 308 26133ft 242kts
27-May-18 18:59 39.422015 -121.336476 307 26135ft 242kts
27-May-18 19:00 39.466511 -121.401750 304 26136ft 241kts
27-May-18 19:01 39.505218 -121.472342 302 26139ft 240kts
27-May-18 19:02 39.556457 -121.530303 313 26139ft 245kts
27-May-18 19:03 39.605286 -121.591749 309 26139ft 243kts
27-May-18 19:04 39.651852 -121.655368 308 26138ft 243kts
27-May-18 19:05 39.697987 -121.719523 307 26134ft 243kts
27-May-18 19:06 39.744248 -121.784076 308 26131ft 243kts
27-May-18 19:07 39.790847 -121.847953 310 26130ft 244kts
27-May-18 19:08 39.839285 -121.909917 311 26130ft 244kts
27-May-18 19:09 39.888292 -121.971655 311 26130ft 244kts
27-May-18 19:10 39.937175 -122.033159 311 26128ft 244kts
27-May-18 19:11 39.986224 -122.094936 311 26125ft 244kts
27-May-18 19:12 40.035138 -122.156597 311 26123ft 244kts
27-May-18 19:13 40.083685 -122.218608 304 26122ft 242kts
27-May-18 19:14 40.114265 -122.295688 289 26120ft 238kts
27-May-18 19:15 40.139088 -122.375709 288 26121ft 237kts
27-May-18 19:16 40.163037 -122.456071 287 26120ft 237kts
27-May-18 19:17 40.186858 -122.536829 287 26117ft 237kts
27-May-18 19:18 40.210511 -122.617395 287 26116ft 237kts
27-May-18 19:19 40.234131 -122.698136 287 26115ft 238kts
27-May-18 19:20 40.258039 -122.780159 287 25590ft 241kts
27-May-18 19:21 40.281303 -122.860013 287 24934ft 230kts
27-May-18 19:22 40.293580 -122.940864 270 24288ft 226kts
27-May-18 19:23 40.296610 -123.022206 272 23789ft 219kts
27-May-18 19:24 40.301365 -123.103488 273 23028ft 228kts
27-May-18 19:25 40.306637 -123.185846 273 21828ft 221kts
27-May-18 19:26 40.311744 -123.264531 273 20628ft 214kts
27-May-18 19:27 40.316691 -123.342154 273 19405ft 214kts
27-May-18 19:28 40.321238 -123.412589 273 17767ft 181kts
27-May-18 19:29 40.325338 -123.476670 273 16026ft 175kts
27-May-18 19:30 40.329395 -123.540916 273 14182ft 174kts
27-May-18 19:31 40.333268 -123.603528 273 12578ft 170kts
27-May-18 19:32 40.337117 -123.665055 272 11169ft 162kts
27-May-18 19:33 40.352813 -123.714312 307 10164ft 169kts
27-May-18 19:34 40.387132 -123.764742 310 8172ft 193kts
27-May-18 19:35 40.419886 -123.813104 310 6352ft 194kts
27-May-18 19:36 40.454950 -123.865646 303 4611ft 166kts
27-May-18 19:37 40.472714 -123.907658 294 4070ft 122kts
27-May-18 19:38 40.489070 -123.951364 294 3228ft 156kts
27-May-18 19:39 40.508065 -124.002152 293 2574ft 143kts
27-May-18 19:40 40.523602 -124.050494 291 1992ft 157kts
27-May-18 19:41 40.541039 -124.104968 291 994ft 150kts
27-May-18 19:42 40.556569 -124.137376 306 359ft 26kts

Navigation Log

Ident Type
Flight plan parsing failed, navigation log unavailable